Time;durP1;ratioP1;P1;durP2;ratioP2;P2;SDS_P1;SDS_P2;PMS_P1;PMS_P2;Temp;Humidity;BMP_temperature;BMP_pressure;BME280_temperature;BME280_humidity;BME280_pressure;Samples;Min_cycle;Max_cycle;Signal;HPM_P1;HPM_P2
2022/11/07 00:01:01;;;;;;;5.93;5.43;;;21.90;99.90;;;;;;6182875;28;90706;-68
2022/11/07 00:04:04;;;;;;;6.13;5.55;;;21.90;99.90;;;;;;6183387;28;89723;-68
2022/11/07 00:07:06;;;;;;;6.70;5.68;;;21.90;99.90;;;;;;6182981;28;89217;-68
2022/11/07 00:10:10;;;;;;;6.30;5.70;;;21.90;99.90;;;;;;6183000;28;89231;-68
2022/11/07 00:13:12;;;;;;;6.30;5.70;;;21.90;99.90;;;;;;6183081;28;89132;-68
2022/11/07 00:16:15;;;;;;;6.65;6.05;;;21.90;99.90;;;;;;6182870;28;89151;-68
2022/11/07 00:19:19;;;;;;;5.70;5.20;;;21.90;99.90;;;;;;6183203;28;89227;-68
2022/11/07 00:22:21;;;;;;;6.15;5.55;;;21.90;99.90;;;;;;6182426;28;87289;-68
2022/11/07 00:25:25;;;;;;;6.03;5.43;;;21.90;99.90;;;;;;6183103;28;89311;-68
2022/11/07 00:28:27;;;;;;;6.00;5.40;;;21.90;99.90;;;;;;6183798;28;89186;-68
2022/11/07 00:31:29;;;;;;;6.30;5.70;;;21.90;99.90;;;;;;6180697;28;90348;-68
2022/11/07 00:34:34;;;;;;;6.10;5.60;;;21.90;99.90;;;;;;6182964;28;89199;-68
2022/11/07 00:37:35;;;;;;;6.40;5.80;;;21.90;99.90;;;;;;6182524;28;89162;-68
2022/11/07 00:40:39;;;;;;;6.30;5.70;;;21.90;99.90;;;;;;6183869;28;89225;-68
2022/11/07 00:43:41;;;;;;;5.45;4.95;;;21.90;99.90;;;;;;6183670;28;89287;-68
2022/11/07 00:46:43;;;;;;;5.38;4.88;;;21.80;99.90;;;;;;6182681;28;89447;-68
2022/11/07 00:49:45;;;;;;;5.47;4.97;;;21.80;99.90;;;;;;6182840;28;89326;-68
2022/11/07 00:52:47;;;;;;;5.80;5.30;;;21.80;99.90;;;;;;6182567;28;88441;-68
2022/11/07 00:55:51;;;;;;;5.88;5.35;;;21.80;99.90;;;;;;6182205;28;89193;-68
2022/11/07 00:58:57;;;;;;;5.53;5.03;;;21.80;99.90;;;;;;6180635;28;89173;-68
2022/11/07 01:01:59;;;;;;;5.50;5.00;;;21.80;99.90;;;;;;6182060;28;90343;-68
2022/11/07 01:05:09;;;;;;;6.80;5.60;;;21.80;99.90;;;;;;6180454;28;88063;-68
2022/11/07 01:08:11;;;;;;;5.75;5.25;;;21.80;99.90;;;;;;6172167;28;89058;-68
2022/11/07 01:11:14;;;;;;;5.75;5.20;;;21.80;99.90;;;;;;6182806;28;89339;-68
2022/11/07 01:14:18;;;;;;;5.32;4.82;;;21.80;99.90;;;;;;6182303;28;89207;-67
2022/11/07 01:17:20;;;;;;;5.63;5.13;;;21.80;99.90;;;;;;6178874;28;87999;-68
2022/11/07 01:20:22;;;;;;;5.35;4.85;;;21.80;99.90;;;;;;6182230;28;89139;-68
2022/11/07 01:23:24;;;;;;;5.25;4.80;;;21.80;99.90;;;;;;6182642;28;88748;-68
2022/11/07 01:26:27;;;;;;;5.15;4.65;;;21.80;99.90;;;;;;6180199;28;89071;-68
2022/11/07 01:29:30;;;;;;;5.93;5.43;;;21.70;99.90;;;;;;6181212;28;89194;-67
2022/11/07 01:32:32;;;;;;;5.38;4.88;;;21.80;99.90;;;;;;6181268;28;90571;-68
2022/11/07 01:35:35;;;;;;;5.25;4.75;;;21.70;99.90;;;;;;6181322;28;89196;-68
2022/11/07 01:38:38;;;;;;;5.20;4.80;;;21.70;99.90;;;;;;6171231;28;89455;-68
2022/11/07 01:41:42;;;;;;;5.10;4.70;;;21.70;99.90;;;;;;6180866;28;89367;-68
2022/11/07 01:44:57;;;;;;;5.20;4.70;;;21.80;99.90;;;;;;6181081;28;89547;-68
2022/11/07 01:48:01;;;;;;;5.28;4.78;;;21.80;99.90;;;;;;6182039;28;89201;-67
2022/11/07 01:51:04;;;;;;;4.93;4.53;;;21.70;99.90;;;;;;6180874;28;89068;-68
2022/11/07 01:54:06;;;;;;;5.78;5.18;;;21.80;99.90;;;;;;6181926;28;88705;-68
2022/11/07 01:57:15;;;;;;;5.60;4.88;;;21.70;99.90;;;;;;6181662;28;88083;-68
2022/11/07 02:00:20;;;;;;;4.80;4.40;;;21.70;99.90;;;;;;6183322;28;89188;-68
2022/11/07 02:03:23;;;;;;;5.32;4.60;;;21.70;99.90;;;;;;6166654;28;90404;-68
2022/11/07 02:06:30;;;;;;;5.88;5.38;;;21.70;99.90;;;;;;6180908;28;89175;-68
2022/11/07 02:09:32;;;;;;;5.70;5.07;;;21.70;99.90;;;;;;6181493;28;89272;-68
2022/11/07 02:12:36;;;;;;;5.60;4.95;;;21.70;99.90;;;;;;6181432;28;89304;-68
2022/11/07 02:15:38;;;;;;;6.05;5.55;;;21.70;99.90;;;;;;6181507;28;89042;-67
2022/11/07 02:18:43;;;;;;;5.90;5.40;;;21.70;99.90;;;;;;6180984;28;89278;-68
2022/11/07 02:21:49;;;;;;;5.60;5.10;;;21.60;99.90;;;;;;6178707;28;89137;-68
2022/11/07 02:24:56;;;;;;;6.10;5.50;;;21.60;99.90;;;;;;6180616;28;88544;-68
2022/11/07 02:28:00;;;;;;;6.55;5.95;;;21.70;99.90;;;;;;6183153;28;89263;-68
2022/11/07 02:31:02;;;;;;;6.00;5.45;;;21.70;99.90;;;;;;6181129;28;88017;-68
2022/11/07 02:34:04;;;;;;;7.13;6.43;;;21.60;99.90;;;;;;6180874;28;90177;-68
2022/11/07 02:37:13;;;;;;;5.78;5.28;;;21.70;99.90;;;;;;6181385;28;89217;-68
2022/11/07 02:40:16;;;;;;;6.47;5.88;;;21.70;99.90;;;;;;6179624;28;89035;-68
2022/11/07 02:43:21;;;;;;;6.30;5.70;;;21.60;99.90;;;;;;6180622;28;88300;-68
2022/11/07 02:46:25;;;;;;;6.38;5.78;;;21.60;99.90;;;;;;6181121;28;89191;-68
2022/11/07 02:49:27;;;;;;;6.32;5.72;;;21.60;99.90;;;;;;6181349;28;89305;-68
2022/11/07 02:52:29;;;;;;;6.60;6.00;;;21.60;99.90;;;;;;6180561;28;89145;-68
2022/11/07 02:55:32;;;;;;;6.75;6.13;;;21.60;99.90;;;;;;6181755;28;88520;-68
2022/11/07 02:58:35;;;;;;;6.78;6.18;;;21.60;99.90;;;;;;6180184;28;89458;-68
2022/11/07 03:01:37;;;;;;;6.70;6.10;;;21.60;99.90;;;;;;6180584;28;89274;-68
2022/11/07 03:04:39;;;;;;;7.35;6.65;;;21.60;99.90;;;;;;6179108;28;90171;-68
2022/11/07 03:07:42;;;;;;;7.03;6.32;;;21.60;99.90;;;;;;6180834;28;89180;-68
2022/11/07 03:10:45;;;;;;;7.15;6.45;;;21.60;99.90;;;;;;6180150;28;89145;-68
2022/11/07 03:13:49;;;;;;;6.63;6.03;;;21.60;99.90;;;;;;6180471;28;89319;-68
2022/11/07 03:16:51;;;;;;;7.22;6.53;;;21.60;99.90;;;;;;6178959;28;89112;-68
2022/11/07 03:19:53;;;;;;;7.30;6.60;;;21.60;99.90;;;;;;6180238;28;88088;-68
2022/11/07 03:22:55;;;;;;;7.38;6.65;;;21.60;99.90;;;;;;6179477;28;89124;-69
2022/11/07 03:25:58;;;;;;;7.20;6.50;;;21.60;99.90;;;;;;6180592;28;87440;-69
2022/11/07 03:29:00;;;;;;;7.53;6.82;;;21.50;99.90;;;;;;6180202;28;89669;-68
2022/11/07 03:32:02;;;;;;;7.50;6.80;;;21.50;99.90;;;;;;6183301;28;89076;-68
2022/11/07 03:35:05;;;;;;;7.30;6.53;;;21.50;99.90;;;;;;6184160;28;91249;-68
2022/11/07 03:38:07;;;;;;;7.25;6.50;;;21.50;99.90;;;;;;6184072;28;89061;-69
2022/11/07 03:41:15;;;;;;;7.72;6.93;;;21.50;99.90;;;;;;6184829;28;89272;-68
2022/11/07 03:44:18;;;;;;;7.70;6.90;;;21.50;99.90;;;;;;6183081;28;88044;-69
2022/11/07 03:47:20;;;;;;;7.18;6.53;;;21.50;99.90;;;;;;6179741;28;89000;-69
2022/11/07 03:50:22;;;;;;;7.10;6.50;;;21.60;99.90;;;;;;6184504;28;89560;-68
2022/11/07 03:53:24;;;;;;;7.70;6.90;;;21.50;99.90;;;;;;6181933;28;89135;-68
2022/11/07 03:56:28;;;;;;;7.75;6.97;;;21.50;99.90;;;;;;6184208;28;88383;-68
2022/11/07 03:59:30;;;;;;;7.82;7.13;;;21.50;99.90;;;;;;6183769;28;89401;-68
2022/11/07 04:02:32;;;;;;;7.72;6.95;;;21.50;99.90;;;;;;6184392;28;88988;-68
2022/11/07 04:05:34;;;;;;;7.88;7.07;;;21.50;99.90;;;;;;6182885;28;89056;-69
2022/11/07 04:08:36;;;;;;;7.82;7.03;;;21.50;99.90;;;;;;6184264;28;89133;-68
2022/11/07 04:18:18;;;;;;;7.38;6.68;;;21.50;99.90;;;;;;6184353;28;87327;-68
2022/11/07 04:21:20;;;;;;;7.53;6.82;;;21.50;99.90;;;;;;6167693;28;89298;-69
2022/11/07 04:24:22;;;;;;;8.02;7.30;;;21.50;99.90;;;;;;6184050;28;89209;-68
2022/11/07 04:27:42;;;;;;;7.15;6.53;;;21.50;99.90;;;;;;6181417;28;88500;-68
2022/11/07 04:30:44;;;;;;;7.78;6.97;;;21.50;99.90;;;;;;6183144;28;89267;-68
2022/11/07 04:33:46;;;;;;;7.38;6.68;;;21.50;99.90;;;;;;6182808;28;89140;-68
2022/11/07 04:36:48;;;;;;;7.57;6.88;;;21.40;99.90;;;;;;6182109;28;90235;-68
2022/11/07 04:39:50;;;;;;;7.78;6.97;;;21.40;99.90;;;;;;6182582;28;89231;-68
2022/11/07 04:42:55;;;;;;;7.85;6.97;;;21.50;99.90;;;;;;6182282;28;89318;-68
2022/11/07 04:45:57;;;;;;;9.63;7.38;;;21.50;99.90;;;;;;6181422;28;89208;-68
2022/11/07 04:48:59;;;;;;;7.03;6.32;;;21.50;99.90;;;;;;6182912;28;89598;-68
2022/11/07 04:52:01;;;;;;;7.15;6.45;;;21.50;99.90;;;;;;6182752;28;90515;-68
2022/11/07 04:55:03;;;;;;;7.38;6.68;;;21.50;99.90;;;;;;6181971;28;89550;-68
2022/11/07 04:58:07;;;;;;;8.00;7.15;;;21.50;99.90;;;;;;6183993;28;88537;-68
2022/11/07 05:01:09;;;;;;;7.35;6.65;;;21.60;99.90;;;;;;6182546;28;89061;-68
2022/11/07 05:04:11;;;;;;;7.20;6.53;;;21.60;99.90;;;;;;6182261;28;89146;-68
2022/11/07 05:07:13;;;;;;;7.00;6.35;;;21.60;99.90;;;;;;6181766;28;89729;-68
2022/11/07 05:10:19;;;;;;;7.63;6.88;;;21.60;99.90;;;;;;6180532;28;89479;-68
2022/11/07 05:13:23;;;;;;;7.00;6.32;;;21.60;99.90;;;;;;6177274;28;89423;-68
2022/11/07 05:16:25;;;;;;;8.80;7.05;;;21.60;99.90;;;;;;6182075;28;89010;-68
2022/11/07 05:19:27;;;;;;;7.13;6.43;;;21.60;99.90;;;;;;6180985;28;89157;-68
2022/11/07 05:25:51;;;;;;;7.10;6.45;;;21.70;99.90;;;;;;6182417;28;87879;-68
2022/11/07 05:28:54;;;;;;;7.07;6.38;;;21.60;99.90;;;;;;6182715;28;88422;-68
2022/11/07 05:31:56;;;;;;;7.28;6.50;;;21.70;99.90;;;;;;6180593;28;89319;-68
2022/11/07 05:34:58;;;;;;;7.05;6.35;;;21.60;99.90;;;;;;6181887;28;89245;-68
2022/11/07 05:38:00;;;;;;;7.07;6.47;;;21.60;99.90;;;;;;6181533;28;90280;-68
2022/11/07 05:41:03;;;;;;;7.20;6.50;;;21.70;99.90;;;;;;6182124;28;89282;-68
2022/11/07 05:44:07;;;;;;;7.05;6.35;;;21.70;99.90;;;;;;6181632;28;88197;-68
2022/11/07 05:47:09;;;;;;;7.22;6.07;;;21.70;99.90;;;;;;6182663;28;90952;-68
2022/11/07 05:50:11;;;;;;;6.72;6.13;;;21.70;99.90;;;;;;6181036;28;88044;-68
2022/11/07 05:57:10;;;;;;;6.38;5.78;;;21.70;99.90;;;;;;6180220;28;87303;-68
2022/11/07 06:00:15;;;;;;;6.45;5.82;;;21.70;99.90;;;;;;6180796;28;88586;-67
2022/11/07 06:03:18;;;;;;;6.65;5.97;;;21.70;99.90;;;;;;6181449;28;89045;-68
2022/11/07 06:06:20;;;;;;;7.13;6.43;;;21.70;99.90;;;;;;6179396;28;88990;-68
2022/11/07 06:09:22;;;;;;;6.50;5.80;;;21.80;99.90;;;;;;6177249;28;90455;-67
2022/11/07 06:12:24;;;;;;;7.43;6.38;;;21.80;99.90;;;;;;6179087;28;89400;-68
2022/11/07 06:15:29;;;;;;;6.68;5.90;;;21.80;99.90;;;;;;6179209;28;89018;-67
2022/11/07 06:18:36;;;;;;;6.80;6.10;;;21.80;99.90;;;;;;6177842;28;89533;-68
2022/11/07 06:21:38;;;;;;;6.43;5.82;;;21.80;99.90;;;;;;6180214;28;89289;-68
2022/11/07 06:24:40;;;;;;;5.85;5.25;;;21.90;99.90;;;;;;6180641;28;89626;-68
2022/11/07 06:27:42;;;;;;;6.28;5.68;;;21.90;99.90;;;;;;6181197;28;89344;-68
2022/11/07 06:30:45;;;;;;;6.40;5.70;;;21.90;99.90;;;;;;6179519;28;88527;-68
2022/11/07 06:33:50;;;;;;;6.05;5.53;;;21.90;99.90;;;;;;6179604;28;89135;-68
2022/11/07 06:36:53;;;;;;;6.15;5.55;;;21.90;99.90;;;;;;6180221;28;88151;-68
2022/11/07 06:39:55;;;;;;;6.43;5.82;;;21.90;99.90;;;;;;6178999;28;90148;-68
2022/11/07 06:43:04;;;;;;;6.22;5.63;;;21.90;99.90;;;;;;6181216;28;89219;-68
2022/11/07 06:46:11;;;;;;;6.22;5.63;;;21.90;99.90;;;;;;6180779;28;88207;-68
2022/11/07 06:49:14;;;;;;;6.38;5.78;;;21.90;99.90;;;;;;6171030;28;89040;-68
2022/11/07 06:52:16;;;;;;;6.10;5.50;;;21.90;99.90;;;;;;6180328;28;88073;-68
2022/11/07 06:55:20;;;;;;;6.10;5.50;;;21.90;99.90;;;;;;6180157;28;89255;-68
2022/11/07 06:58:23;;;;;;;5.85;5.25;;;21.90;99.90;;;;;;6180480;28;89313;-68
2022/11/07 07:01:27;;;;;;;5.95;5.35;;;21.90;99.90;;;;;;6179809;28;88395;-68
2022/11/07 07:04:29;;;;;;;6.93;5.85;;;21.90;99.90;;;;;;6180024;28;89057;-68
2022/11/07 07:07:31;;;;;;;6.30;5.70;;;22.00;99.90;;;;;;6185333;28;89393;-68
2022/11/07 07:10:36;;;;;;;6.07;5.45;;;21.90;99.90;;;;;;6184496;28;90105;-68
2022/11/07 07:13:39;;;;;;;5.75;5.15;;;22.00;99.90;;;;;;6184612;28;89351;-68
2022/11/07 07:16:42;;;;;;;5.45;4.95;;;22.00;99.90;;;;;;6185308;28;89133;-68
2022/11/07 07:19:44;;;;;;;6.15;5.30;;;21.90;99.90;;;;;;6183115;28;89164;-68
2022/11/07 07:22:46;;;;;;;6.43;5.47;;;22.00;99.90;;;;;;6182925;28;89181;-68
2022/11/07 07:25:55;;;;;;;5.45;4.95;;;22.00;99.90;;;;;;6183736;28;89499;-68
2022/11/07 07:28:57;;;;;;;5.15;4.65;;;22.00;99.90;;;;;;6181895;28;90665;-68
2022/11/07 07:32:00;;;;;;;6.90;5.15;;;22.00;99.90;;;;;;6184171;28;88699;-68
2022/11/07 07:35:02;;;;;;;6.82;5.07;;;22.00;99.90;;;;;;6183696;28;89137;-68
2022/11/07 07:38:04;;;;;;;5.45;4.95;;;22.00;99.90;;;;;;6182170;28;89112;-68
2022/11/07 07:41:08;;;;;;;5.78;5.05;;;22.00;99.90;;;;;;6181891;28;90018;-68
2022/11/07 07:44:10;;;;;;;6.22;5.03;;;22.00;99.90;;;;;;6184381;28;89131;-68
2022/11/07 07:47:13;;;;;;;7.57;5.50;;;22.00;99.90;;;;;;6177477;28;89243;-68
2022/11/07 07:50:15;;;;;;;6.53;5.22;;;22.00;99.90;;;;;;6184009;28;89174;-68
2022/11/07 07:53:18;;;;;;;6.30;5.03;;;22.00;99.90;;;;;;6181892;28;89304;-68
2022/11/07 07:56:20;;;;;;;5.80;5.20;;;22.10;99.90;;;;;;6183393;28;88037;-68
2022/11/07 07:59:22;;;;;;;5.30;4.72;;;22.10;99.90;;;;;;6183782;28;89077;-68
2022/11/07 08:02:25;;;;;;;5.40;4.60;;;22.10;99.90;;;;;;6185214;28;88602;-67
2022/11/07 08:05:27;;;;;;;5.40;4.90;;;22.10;99.90;;;;;;6183890;28;89491;-68
2022/11/07 08:08:29;;;;;;;5.05;4.55;;;22.00;99.90;;;;;;6183600;28;89455;-68
2022/11/07 08:11:32;;;;;;;4.85;4.40;;;22.00;99.90;;;;;;6182819;28;90214;-68
2022/11/07 08:14:34;;;;;;;6.22;5.00;;;22.10;99.90;;;;;;6183346;28;89310;-68
2022/11/07 08:17:37;;;;;;;5.55;4.50;;;22.10;99.90;;;;;;6183042;28;89208;-68
2022/11/07 08:20:39;;;;;;;5.35;4.85;;;22.00;99.90;;;;;;6182492;28;89155;-68
2022/11/07 08:23:41;;;;;;;5.03;4.53;;;22.10;99.90;;;;;;6173563;28;89174;-68
2022/11/07 08:26:43;;;;;;;6.82;4.93;;;22.10;99.90;;;;;;6179837;28;89056;-69
2022/11/07 08:29:45;;;;;;;4.43;4.03;;;22.10;99.90;;;;;;6183573;28;88224;-68
2022/11/07 08:32:49;;;;;;;5.05;4.22;;;22.10;99.90;;;;;;6181849;28;88711;-69
2022/11/07 08:35:51;;;;;;;5.35;4.70;;;22.10;99.80;;;;;;6181950;28;89157;-69
2022/11/07 08:38:53;;;;;;;5.07;4.53;;;22.10;99.70;;;;;;6181866;28;88037;-68
2022/11/07 08:41:55;;;;;;;5.95;4.50;;;22.10;99.70;;;;;;6182031;28;89053;-69
2022/11/07 08:44:57;;;;;;;5.00;4.30;;;22.10;99.80;;;;;;6182907;28;88012;-68
2022/11/07 08:48:00;;;;;;;6.93;5.00;;;22.10;99.90;;;;;;6178960;28;89172;-69
2022/11/07 08:51:03;;;;;;;4.72;4.32;;;22.10;99.90;;;;;;6182433;28;89472;-69
2022/11/07 08:54:05;;;;;;;4.80;4.30;;;22.10;99.90;;;;;;6181888;28;89304;-69
2022/11/07 08:57:07;;;;;;;4.50;4.10;;;22.10;99.90;;;;;;6182328;28;89234;-69
2022/11/07 09:00:10;;;;;;;5.28;4.30;;;22.10;99.90;;;;;;6183004;28;89129;-68
2022/11/07 09:03:14;;;;;;;4.85;4.22;;;22.10;99.90;;;;;;6182798;28;88514;-69
2022/11/07 09:06:16;;;;;;;4.88;4.38;;;22.10;99.90;;;;;;6181484;28;89717;-69
2022/11/07 09:09:18;;;;;;;4.90;4.07;;;22.10;99.90;;;;;;6181791;28;89140;-68
2022/11/07 09:12:20;;;;;;;5.82;4.40;;;22.10;99.90;;;;;;6181434;28;90517;-69
2022/11/07 09:15:22;;;;;;;4.40;3.97;;;22.10;99.90;;;;;;6182825;28;89179;-69
2022/11/07 09:18:26;;;;;;;4.70;4.30;;;22.10;99.90;;;;;;6182763;28;89256;-69
2022/11/07 09:21:28;;;;;;;4.50;3.75;;;22.10;99.90;;;;;;6179069;28;90800;-69
2022/11/07 09:24:30;;;;;;;4.28;3.88;;;22.10;99.90;;;;;;6179331;28;89246;-69
2022/11/07 09:27:32;;;;;;;5.50;4.20;;;22.10;99.90;;;;;;6181515;28;89181;-69
2022/11/07 09:30:34;;;;;;;4.57;4.00;;;22.10;99.90;;;;;;6181031;28;89826;-68
2022/11/07 09:33:37;;;;;;;4.07;3.67;;;22.10;99.90;;;;;;6182081;28;88395;-69
2022/11/07 09:36:39;;;;;;;4.28;3.83;;;22.10;99.90;;;;;;6181214;28;89429;-68
2022/11/07 09:39:41;;;;;;;4.90;4.03;;;22.10;99.90;;;;;;6180952;28;89400;-68
2022/11/07 09:42:53;;;;;;;4.68;4.13;;;22.10;99.90;;;;;;6180241;28;90197;-68
2022/11/07 09:46:02;;;;;;;5.85;4.10;;;22.10;99.90;;;;;;6181310;28;89408;-69
2022/11/07 09:49:15;;;;;;;4.95;3.60;;;22.10;99.90;;;;;;6181487;28;88757;-68
2022/11/07 09:52:22;;;;;;;4.53;4.10;;;22.10;99.90;;;;;;6180161;28;88125;-68
2022/11/07 09:55:27;;;;;;;4.25;3.85;;;22.10;99.90;;;;;;6181091;28;88037;-68
2022/11/07 09:58:33;;;;;;;4.43;3.70;;;22.10;99.90;;;;;;6181180;28;89206;-68
2022/11/07 10:01:35;;;;;;;4.00;3.60;;;22.10;99.90;;;;;;6181495;28;89307;-68
2022/11/07 10:04:39;;;;;;;4.15;3.72;;;22.10;99.90;;;;;;6182131;28;88897;-68
2022/11/07 10:07:51;;;;;;;4.65;3.60;;;22.10;99.90;;;;;;6181419;28;89188;-68
2022/11/07 10:10:58;;;;;;;4.43;3.92;;;22.10;99.90;;;;;;6179795;28;89566;-68
2022/11/07 10:14:21;;;;;;;4.40;3.78;;;22.10;99.90;;;;;;6179801;28;89840;-68
2022/11/07 10:17:34;;;;;;;4.18;3.78;;;22.10;99.90;;;;;;6181363;28;89386;-68
2022/11/07 10:20:51;;;;;;;4.93;3.97;;;22.10;99.90;;;;;;6180299;28;88060;-69
2022/11/07 10:24:03;;;;;;;4.05;3.60;;;22.10;99.90;;;;;;6181495;28;89376;-68
2022/11/07 10:27:09;;;;;;;3.97;3.58;;;22.10;99.90;;;;;;6174314;28;89179;-69
2022/11/07 10:30:16;;;;;;;3.95;3.55;;;22.20;99.90;;;;;;6179297;28;89469;-68
2022/11/07 10:33:30;;;;;;;4.00;3.60;;;22.10;99.90;;;;;;6173683;28;89399;-69
2022/11/07 10:36:34;;;;;;;3.90;3.50;;;22.10;99.90;;;;;;6173467;28;87306;-68
2022/11/07 10:39:36;;;;;;;5.30;3.83;;;22.10;99.90;;;;;;6178868;28;89315;-68
2022/11/07 10:42:38;;;;;;;4.10;3.70;;;22.10;99.90;;;;;;6182094;28;89511;-68
2022/11/07 10:45:40;;;;;;;3.97;3.58;;;22.10;99.90;;;;;;6183211;28;90711;-68
2022/11/07 10:48:55;;;;;;;4.30;3.80;;;22.10;99.90;;;;;;6184429;28;89257;-69
2022/11/07 10:52:09;;;;;;;3.40;3.10;;;22.10;99.90;;;;;;6184547;28;88028;-68
2022/11/07 10:55:16;;;;;;;4.45;3.90;;;22.10;99.90;;;;;;6182184;28;89162;-68
2022/11/07 10:58:20;;;;;;;3.45;3.15;;;22.10;99.90;;;;;;6182986;28;89139;-68
2022/11/07 11:01:27;;;;;;;3.92;3.38;;;22.10;99.90;;;;;;6183553;28;89202;-67
2022/11/07 11:04:31;;;;;;;4.00;3.40;;;22.10;99.90;;;;;;6181264;28;89321;-69
2022/11/07 11:07:37;;;;;;;4.45;3.50;;;22.20;99.90;;;;;;6183650;28;88391;-69
2022/11/07 11:10:40;;;;;;;4.60;3.42;;;22.10;99.90;;;;;;6183964;28;89692;-68
2022/11/07 11:13:42;;;;;;;4.40;3.60;;;22.10;99.90;;;;;;6183072;28;88324;-67
2022/11/07 11:16:45;;;;;;;3.63;3.30;;;22.20;99.90;;;;;;6180392;28;90134;-69
2022/11/07 11:19:51;;;;;;;3.50;3.20;;;22.20;99.90;;;;;;6182871;28;89153;-66
2022/11/07 11:22:55;;;;;;;3.85;3.22;;;22.20;99.90;;;;;;6181510;28;89120;-67
2022/11/07 11:26:00;;;;;;;3.78;3.17;;;22.20;99.90;;;;;;6183868;28;89262;-67
2022/11/07 11:29:05;;;;;;;4.88;3.25;;;22.20;99.90;;;;;;6183552;28;89131;-66
2022/11/07 11:32:16;;;;;;;3.45;3.15;;;22.20;99.90;;;;;;6184169;28;89243;-67
2022/11/07 11:35:31;;;;;;;3.72;3.30;;;22.20;99.90;;;;;;6183259;28;88050;-67
2022/11/07 11:38:36;;;;;;;3.38;3.08;;;22.20;99.90;;;;;;6181887;28;88474;-67
2022/11/07 11:41:47;;;;;;;4.90;3.30;;;22.20;99.90;;;;;;6183661;28;89368;-67
2022/11/07 11:44:52;;;;;;;3.75;3.35;;;22.30;99.90;;;;;;6183512;28;87931;-66
2022/11/07 11:48:00;;;;;;;3.85;3.30;;;22.20;99.90;;;;;;6176456;28;88816;-67
2022/11/07 11:51:06;;;;;;;4.00;3.28;;;22.20;99.90;;;;;;6183741;28;89316;-67
2022/11/07 11:54:12;;;;;;;4.30;3.40;;;22.30;99.90;;;;;;6186831;28;89263;-67
2022/11/07 11:57:18;;;;;;;3.58;3.25;;;22.50;99.90;;;;;;6183427;28;89220;-67
2022/11/07 12:00:22;;;;;;;4.18;3.30;;;22.50;99.90;;;;;;6180364;28;89541;-67
2022/11/07 12:03:39;;;;;;;3.30;3.00;;;22.50;99.90;;;;;;6182823;28;89432;-67
2022/11/07 12:06:45;;;;;;;4.30;3.35;;;22.50;99.90;;;;;;6180276;28;89241;-66
2022/11/07 12:09:54;;;;;;;3.17;2.85;;;22.50;99.90;;;;;;6181336;28;88450;-67
2022/11/07 12:13:08;;;;;;;4.38;3.40;;;22.50;99.90;;;;;;6179648;28;89216;-67
2022/11/07 12:16:25;;;;;;;4.28;3.10;;;22.50;99.90;;;;;;6175302;28;88080;-67
2022/11/07 12:19:31;;;;;;;3.75;3.08;;;22.80;99.90;;;;;;6177608;28;90117;-67
2022/11/07 12:22:47;;;;;;;4.43;3.28;;;23.00;99.90;;;;;;6178464;28;89747;-67
2022/11/07 12:25:55;;;;;;;4.05;3.08;;;23.30;99.90;;;;;;6180503;28;89250;-67
2022/11/07 12:29:08;;;;;;;4.35;3.30;;;23.30;99.90;;;;;;6180877;28;89170;-67
2022/11/07 12:32:18;;;;;;;3.60;3.05;;;23.40;99.90;;;;;;6180084;28;89026;-66
2022/11/07 12:35:35;;;;;;;2.95;2.67;;;23.40;99.90;;;;;;6180779;28;89080;-67
2022/11/07 12:39:02;;;;;;;3.40;3.08;;;23.30;99.90;;;;;;6181896;28;89081;-67
2022/11/07 12:42:12;;;;;;;5.10;3.50;;;23.20;99.90;;;;;;6181273;28;88295;-67
2022/11/07 12:45:24;;;;;;;3.72;3.10;;;23.10;99.90;;;;;;6182746;28;89111;-67
2022/11/07 12:49:03;;;;;;;4.50;3.30;;;23.00;99.90;;;;;;6182377;28;89064;-67
2022/11/07 12:52:17;;;;;;;3.60;2.83;;;23.00;99.90;;;;;;6181251;28;90197;-67
2022/11/07 12:55:23;;;;;;;5.80;3.15;;;22.90;99.90;;;;;;6181262;28;89527;-67
2022/11/07 12:58:31;;;;;;;3.17;2.50;;;22.80;99.90;;;;;;6182404;28;89288;-68
2022/11/07 13:01:42;;;;;;;3.05;2.70;;;22.80;99.90;;;;;;6180934;28;88079;-67
2022/11/07 13:04:49;;;;;;;5.00;3.20;;;22.80;99.90;;;;;;6177717;28;89270;-67
2022/11/07 13:07:57;;;;;;;3.08;2.78;;;22.70;99.90;;;;;;6182389;28;89151;-67
2022/11/07 13:11:04;;;;;;;3.55;2.53;;;22.80;99.90;;;;;;6180157;28;90062;-67
2022/11/07 13:14:33;;;;;;;3.03;2.55;;;22.70;99.90;;;;;;6181606;28;88873;-67
2022/11/07 13:17:40;;;;;;;3.38;2.60;;;22.70;99.90;;;;;;6157366;28;89458;-67
2022/11/07 13:20:42;;;;;;;4.35;2.70;;;22.70;99.90;;;;;;6170723;28;88233;-67
2022/11/07 13:23:45;;;;;;;3.70;2.80;;;22.60;99.90;;;;;;6181539;28;90313;-67
2022/11/07 13:26:47;;;;;;;2.92;2.50;;;22.70;99.90;;;;;;6181598;28;89664;-67
2022/11/07 13:29:51;;;;;;;3.58;2.75;;;22.60;99.90;;;;;;6181841;28;89231;-67
2022/11/07 13:32:53;;;;;;;2.92;2.53;;;22.60;99.90;;;;;;6181341;28;89574;-67
2022/11/07 13:35:57;;;;;;;2.63;2.40;;;22.60;99.90;;;;;;6183041;28;89138;-67
2022/11/07 13:39:04;;;;;;;3.10;2.80;;;22.60;99.90;;;;;;6181617;28;89322;-67
2022/11/07 13:42:06;;;;;;;3.33;2.65;;;22.60;99.90;;;;;;6180857;28;89182;-67
2022/11/07 13:45:25;;;;;;;3.60;2.70;;;22.60;99.90;;;;;;6181382;28;87275;-67
2022/11/07 13:48:35;;;;;;;3.22;2.70;;;22.50;99.90;;;;;;6180535;28;89160;-67
2022/11/07 13:51:42;;;;;;;3.42;2.60;;;22.50;99.90;;;;;;6180366;28;89146;-67
2022/11/07 13:54:51;;;;;;;4.03;2.83;;;22.50;99.90;;;;;;6176615;28;90324;-67
2022/11/07 13:57:57;;;;;;;2.72;2.45;;;22.50;99.90;;;;;;6179937;28;90459;-67
2022/11/07 14:01:09;;;;;;;4.63;3.13;;;22.50;99.90;;;;;;6180559;28;89641;-67
2022/11/07 14:04:16;;;;;;;3.10;2.42;;;22.50;99.90;;;;;;6178773;28;88137;-67
2022/11/07 14:07:19;;;;;;;3.65;2.83;;;22.50;99.90;;;;;;6178606;28;88322;-67
2022/11/07 14:10:25;;;;;;;2.80;2.42;;;22.50;99.90;;;;;;6180713;28;89565;-67
2022/11/07 14:13:32;;;;;;;2.97;2.38;;;22.40;99.90;;;;;;6177913;28;89263;-67
2022/11/07 14:16:35;;;;;;;2.38;2.15;;;22.40;99.90;;;;;;6175519;28;88547;-67
2022/11/07 14:19:37;;;;;;;3.38;2.67;;;22.40;99.90;;;;;;6179961;28;89211;-67
2022/11/07 14:22:39;;;;;;;3.13;2.33;;;22.40;99.90;;;;;;6178672;28;89761;-67
2022/11/07 14:25:42;;;;;;;2.70;2.20;;;22.40;99.90;;;;;;6179745;28;90076;-67
2022/11/07 14:28:44;;;;;;;3.10;2.00;;;22.40;99.90;;;;;;6178673;28;89151;-67
2022/11/07 14:31:47;;;;;;;3.05;2.30;;;22.40;99.90;;;;;;6179963;28;89257;-66
2022/11/07 14:34:51;;;;;;;2.38;2.17;;;22.40;99.90;;;;;;6179856;28;89186;-67
2022/11/07 14:37:53;;;;;;;2.80;2.28;;;22.40;99.90;;;;;;6179895;28;89388;-66
2022/11/07 14:40:59;;;;;;;2.75;2.35;;;22.40;99.90;;;;;;6179628;28;89668;-67
2022/11/07 14:44:03;;;;;;;2.50;2.30;;;22.40;99.90;;;;;;6174778;28;88217;-67
2022/11/07 14:47:07;;;;;;;2.85;2.30;;;22.40;99.90;;;;;;6179538;28;88081;-67
2022/11/07 14:50:16;;;;;;;3.15;2.42;;;22.40;99.90;;;;;;6179852;28;89275;-67
2022/11/07 14:53:24;;;;;;;2.70;2.33;;;22.30;99.90;;;;;;6180145;28;89182;-67
2022/11/07 14:56:29;;;;;;;3.22;2.53;;;22.40;99.90;;;;;;6178236;28;90979;-68
2022/11/07 14:59:34;;;;;;;2.50;2.30;;;22.30;99.90;;;;;;6180638;28;89427;-67
2022/11/07 15:02:37;;;;;;;3.85;2.67;;;22.40;99.90;;;;;;6179305;28;89656;-67
2022/11/07 15:05:44;;;;;;;3.28;2.35;;;22.40;99.90;;;;;;6179457;28;89443;-68
2022/11/07 15:08:56;;;;;;;3.35;2.50;;;22.30;99.90;;;;;;6179486;28;89135;-67
2022/11/07 15:12:00;;;;;;;2.33;2.13;;;22.40;99.90;;;;;;6180427;28;89164;-68
2022/11/07 15:15:08;;;;;;;2.70;2.22;;;22.40;99.90;;;;;;6180784;28;89419;-68
2022/11/07 15:18:27;;;;;;;2.25;2.05;;;22.30;99.90;;;;;;6180695;28;88722;-68
2022/11/07 15:21:31;;;;;;;2.60;2.30;;;22.40;99.90;;;;;;6169552;28;88200;-68
2022/11/07 15:24:37;;;;;;;2.22;2.03;;;22.30;99.90;;;;;;6178318;28;89477;-67
2022/11/07 15:27:40;;;;;;;2.45;2.10;;;22.30;99.90;;;;;;6180878;28;90355;-68
2022/11/07 15:30:43;;;;;;;2.50;2.30;;;22.40;99.90;;;;;;6183293;28;89190;-68
2022/11/07 15:33:48;;;;;;;2.33;2.13;;;22.40;99.90;;;;;;6183621;28;89306;-68
2022/11/07 15:36:50;;;;;;;2.50;2.05;;;22.30;99.90;;;;;;6183297;28;89095;-67
2022/11/07 15:39:52;;;;;;;2.20;2.00;;;22.30;99.90;;;;;;6183641;28;89116;-68
2022/11/07 15:42:54;;;;;;;2.35;2.00;;;22.30;99.90;;;;;;6183529;28;88124;-68
2022/11/07 15:45:58;;;;;;;2.28;2.00;;;22.30;99.90;;;;;;6182784;28;89656;-67
2022/11/07 15:49:02;;;;;;;2.97;2.28;;;22.30;99.90;;;;;;6182029;28;88673;-68
2022/11/07 15:52:04;;;;;;;2.83;2.40;;;22.30;99.90;;;;;;6173963;28;89219;-68
2022/11/07 15:55:08;;;;;;;2.22;2.03;;;22.30;99.90;;;;;;6180619;28;89181;-68
2022/11/07 15:58:13;;;;;;;2.40;2.13;;;22.30;99.90;;;;;;6182237;28;90164;-67
2022/11/07 16:01:15;;;;;;;2.45;2.00;;;22.30;99.90;;;;;;6183470;28;89274;-68
2022/11/07 16:04:19;;;;;;;2.20;2.00;;;22.30;99.90;;;;;;6183724;28;88151;-68
2022/11/07 16:07:21;;;;;;;2.47;2.00;;;22.30;99.90;;;;;;6177090;28;89244;-67
2022/11/07 16:10:25;;;;;;;2.63;2.30;;;22.30;99.90;;;;;;6179541;28;88194;-67
2022/11/07 16:13:27;;;;;;;3.08;2.35;;;22.30;99.90;;;;;;6180765;28;89411;-68
2022/11/07 16:16:34;;;;;;;2.50;2.08;;;22.30;99.90;;;;;;6180493;28;89648;-67